createdAt,value
2023-01-28T00:02:03.865Z,364.82
2023-01-28T00:07:03.794Z,363.22
2023-01-28T00:12:03.755Z,361.64
2023-01-28T00:17:03.925Z,366.02
2023-01-28T00:22:03.616Z,372.18
2023-01-28T00:27:03.823Z,367.24
2023-01-28T00:32:03.510Z,365.62
2023-01-28T00:37:03.445Z,365.62
2023-01-28T00:42:03.391Z,367.24
2023-01-28T00:47:03.277Z,364.02
2023-01-28T00:52:03.250Z,367.24
2023-01-28T00:57:03.169Z,368.87
2023-01-28T01:02:03.115Z,368.05
2023-01-28T01:07:23.800Z,373.02
2023-01-28T01:12:16.213Z,375.55
2023-01-28T01:17:16.174Z,375.98
2023-01-28T01:22:16.084Z,381.40
2023-01-28T01:27:16.046Z,392.51
2023-01-28T01:32:15.965Z,392.51
2023-01-28T01:37:15.884Z,393.88
2023-01-28T01:42:15.818Z,396.43
2023-01-28T01:47:15.765Z,396.66
2023-01-28T01:52:15.683Z,394.80
2023-01-28T01:57:15.653Z,397.36
2023-01-28T02:02:15.640Z,395.50
2023-01-28T02:07:15.558Z,395.73
2023-01-28T02:12:15.432Z,392.28
2023-01-28T02:17:15.378Z,387.54
2023-01-28T02:22:15.298Z,388.21
2023-01-28T02:27:15.299Z,391.82
2023-01-28T02:32:15.179Z,390.23
2023-01-28T02:37:15.143Z,392.73
2023-01-28T02:42:15.054Z,394.34
2023-01-28T02:47:15.024Z,391.14
2023-01-28T02:52:14.921Z,393.19
2023-01-28T02:57:14.877Z,396.89
2023-01-28T03:02:14.880Z,402.58
2023-01-28T03:07:14.750Z,400.67
2023-01-28T03:12:14.684Z,405.73
2023-01-28T03:17:14.679Z,409.18
2023-01-28T03:22:14.517Z,415.99
2023-01-28T03:27:14.535Z,420.40
2023-01-28T03:32:14.490Z,426.25
2023-01-28T03:37:14.371Z,427.87
2023-01-28T03:42:14.299Z,427.33
2023-01-28T03:47:14.238Z,430.33
2023-01-28T03:52:14.220Z,433.65
2023-01-28T03:57:14.101Z,433.09
2023-01-28T04:02:14.016Z,439.01
2023-01-28T04:07:13.974Z,443.93
2023-01-28T04:12:13.892Z,441.89
2023-01-28T04:17:13.851Z,445.69
2023-01-28T04:22:13.772Z,449.55
2023-01-28T04:27:13.707Z,455.32
2023-01-28T04:32:13.647Z,457.48
2023-01-28T04:37:13.582Z,457.17
2023-01-28T04:42:13.521Z,451.36
2023-01-28T04:47:13.458Z,448.65
2023-01-28T04:52:13.415Z,449.25
2023-01-28T04:57:13.336Z,448.06
2023-01-28T05:02:13.330Z,449.85
2023-01-28T05:07:13.208Z,450.45
2023-01-28T05:12:13.123Z,453.79
2023-01-28T05:17:24.100Z,460.60
2023-01-28T05:22:16.454Z,474.21
2023-01-28T05:27:16.395Z,478.24
2023-01-28T05:32:16.363Z,482.01
2023-01-28T05:37:16.245Z,487.58
2023-01-28T05:42:16.197Z,488.29
2023-01-28T05:47:16.170Z,490.42
2023-01-28T05:52:16.074Z,489.35
2023-01-28T05:57:15.998Z,487.23
2023-01-28T06:02:15.991Z,491.49
2023-01-28T06:07:15.879Z,490.77
2023-01-28T06:12:15.828Z,491.13
2023-01-28T06:17:18.219Z,487.23
2023-01-28T06:22:15.677Z,482.70
2023-01-28T06:27:15.617Z,478.24
2023-01-28T06:32:15.594Z,479.26
2023-01-28T06:37:15.491Z,479.61
2023-01-28T06:42:15.428Z,477.23
2023-01-28T06:47:15.381Z,475.21
2023-01-28T06:52:15.294Z,477.23
2023-01-28T06:57:15.220Z,476.55
2023-01-28T07:02:15.190Z,475.21
2023-01-28T07:07:15.125Z,468.28
2023-01-28T07:12:15.098Z,472.55
2023-01-28T07:17:15.169Z,467.96
2023-01-28T07:22:18.364Z,466.98
2023-01-28T07:27:14.825Z,463.45
2023-01-28T07:32:14.795Z,463.77
2023-01-28T07:37:14.819Z,468.61
2023-01-28T07:42:14.668Z,464.09
2023-01-28T07:47:14.655Z,460.60
2023-01-28T07:52:14.524Z,460.92
2023-01-28T07:57:14.449Z,456.86
2023-01-28T08:02:14.406Z,458.41
2023-01-28T08:07:14.331Z,459.98
2023-01-28T08:12:14.279Z,458.10
2023-01-28T08:17:14.205Z,462.18
2023-01-28T08:22:14.149Z,462.18
2023-01-28T08:27:14.069Z,461.23
2023-01-28T08:32:14.024Z,458.41
2023-01-28T08:37:13.930Z,457.48
2023-01-28T08:42:13.879Z,460.60
2023-01-28T08:47:13.817Z,464.09
2023-01-28T08:52:13.760Z,462.18
2023-01-28T08:57:13.692Z,454.09
2023-01-28T09:02:29.256Z,459.66
2023-01-28T09:07:14.562Z,462.82
2023-01-28T09:12:13.489Z,457.79
2023-01-28T09:17:13.440Z,452.57
2023-01-28T09:22:13.389Z,447.76
2023-01-28T09:27:13.304Z,443.93
2023-01-28T09:32:13.255Z,440.73
2023-01-28T09:37:13.173Z,432.54
2023-01-28T09:42:13.151Z,430.88
2023-01-28T09:47:13.053Z,427.06
2023-01-28T09:52:13.011Z,426.52
2023-01-28T09:57:12.937Z,425.71
2023-01-28T10:02:12.874Z,423.57
2023-01-28T10:07:12.797Z,421.45
2023-01-28T10:12:12.713Z,420.14
2023-01-28T10:17:12.649Z,428.42
2023-01-28T10:22:12.606Z,428.42
2023-01-28T10:27:12.523Z,424.64
2023-01-28T10:32:12.466Z,428.14
2023-01-28T10:37:12.398Z,430.33
2023-01-28T10:42:12.343Z,430.60
2023-01-28T10:47:12.253Z,427.87
2023-01-28T10:52:12.209Z,433.37
2023-01-28T10:57:12.131Z,436.46
2023-01-28T11:02:12.092Z,430.88
2023-01-28T11:07:11.989Z,427.87
2023-01-28T11:12:11.954Z,423.30
2023-01-28T11:17:11.941Z,421.45
2023-01-28T11:22:11.897Z,424.90
2023-01-28T11:27:11.718Z,427.87
2023-01-28T11:32:11.669Z,425.71
2023-01-28T11:37:11.596Z,425.98
2023-01-28T11:42:11.562Z,424.37
2023-01-28T11:47:11.481Z,430.88
2023-01-28T11:52:11.430Z,429.78
2023-01-28T11:57:11.340Z,429.78
2023-01-28T12:02:11.287Z,430.33
2023-01-28T12:07:11.211Z,427.87
2023-01-28T12:12:11.133Z,433.09
2023-01-28T12:17:11.067Z,432.81
2023-01-28T12:22:11.019Z,432.81
2023-01-28T12:27:10.960Z,431.98
2023-01-28T12:32:10.895Z,437.59
2023-01-28T12:37:10.812Z,444.80
2023-01-28T12:42:10.767Z,448.65
2023-01-28T12:47:10.674Z,448.95
2023-01-28T12:52:10.647Z,452.26
2023-01-28T12:57:10.644Z,457.48
2023-01-28T13:02:10.577Z,457.17
2023-01-28T13:07:10.449Z,451.36
2023-01-28T13:12:12.113Z,451.05
2023-01-28T13:17:10.375Z,456.86
2023-01-28T13:22:10.247Z,460.29
2023-01-28T13:27:10.189Z,456.24
2023-01-28T13:32:10.241Z,458.41
2023-01-28T13:37:10.058Z,456.24
2023-01-28T13:42:09.989Z,463.45
2023-01-28T13:47:09.929Z,465.37
2023-01-28T13:52:09.853Z,469.59
2023-01-28T13:57:09.978Z,465.69
2023-01-28T14:02:09.730Z,468.61
2023-01-28T14:07:09.669Z,466.66
2023-01-28T14:12:09.611Z,459.98
2023-01-28T14:17:09.525Z,454.40
2023-01-28T14:22:09.474Z,454.70
2023-01-28T14:27:09.427Z,461.23
2023-01-28T14:32:10.946Z,459.04
2023-01-28T14:37:09.305Z,456.24
2023-01-28T14:42:09.222Z,454.09
2023-01-28T14:47:09.164Z,465.37
2023-01-28T14:52:09.107Z,463.14
2023-01-28T14:57:09.044Z,455.32
2023-01-28T15:02:08.965Z,454.40
2023-01-28T15:07:08.916Z,454.09
2023-01-28T15:12:08.831Z,445.98
2023-01-28T15:17:08.825Z,446.87
2023-01-28T15:22:08.693Z,447.46
2023-01-28T15:27:08.653Z,446.57
2023-01-28T15:32:08.566Z,450.75
2023-01-28T15:37:08.523Z,457.17
2023-01-28T15:42:08.453Z,464.41
2023-01-28T15:47:08.394Z,469.26
2023-01-28T15:52:08.352Z,464.41
2023-01-28T15:57:08.265Z,461.23
2023-01-28T16:02:08.240Z,456.55
2023-01-28T16:07:08.137Z,453.17
2023-01-28T16:12:08.075Z,448.06
2023-01-28T16:17:08.049Z,447.17
2023-01-28T16:22:07.934Z,445.98
2023-01-28T16:27:07.847Z,443.93
2023-01-28T16:32:07.885Z,441.31
2023-01-28T16:37:07.843Z,441.31
2023-01-28T16:42:07.650Z,435.33
2023-01-28T16:47:07.630Z,435.33
2023-01-28T16:52:07.576Z,434.49
2023-01-28T16:57:07.492Z,429.51
2023-01-28T17:02:07.420Z,428.14
2023-01-28T17:07:07.371Z,426.79
2023-01-28T17:12:07.300Z,430.60
2023-01-28T17:17:07.268Z,424.64
2023-01-28T17:22:07.170Z,425.98
2023-01-28T17:27:07.131Z,426.52
2023-01-28T17:32:07.041Z,429.78
2023-01-28T17:37:06.985Z,431.98
2023-01-28T17:42:06.940Z,431.71
2023-01-28T17:47:06.886Z,434.21
2023-01-28T17:52:06.774Z,432.81
2023-01-28T17:57:06.733Z,437.02
2023-01-28T18:02:06.701Z,439.01
2023-01-28T18:07:06.613Z,434.77
2023-01-28T18:12:06.543Z,435.89
2023-01-28T18:17:06.491Z,437.59
2023-01-28T18:22:06.407Z,438.44
2023-01-28T18:27:06.323Z,438.73
2023-01-28T18:32:06.305Z,449.85
2023-01-28T18:37:06.243Z,451.66
2023-01-28T18:42:06.120Z,456.24
2023-01-28T18:47:06.150Z,457.79
2023-01-28T18:52:06.024Z,464.73
2023-01-28T18:57:05.956Z,464.41
2023-01-28T19:02:05.914Z,468.61
2023-01-28T19:07:08.016Z,465.69
2023-01-28T19:12:05.814Z,459.35
2023-01-28T19:17:05.741Z,454.70
2023-01-28T19:22:05.675Z,453.48
2023-01-28T19:27:05.580Z,454.09
2023-01-28T19:32:06.318Z,451.36
2023-01-28T19:37:05.480Z,455.32
2023-01-28T19:42:05.400Z,456.55
2023-01-28T19:47:05.336Z,460.92
2023-01-28T19:52:05.246Z,461.23
2023-01-28T19:57:05.211Z,460.29
2023-01-28T20:02:05.130Z,454.09
2023-01-28T20:07:05.114Z,458.41
2023-01-28T20:12:04.975Z,460.92
2023-01-28T20:17:05.000Z,461.87
2023-01-28T20:22:04.866Z,468.61
2023-01-28T20:27:04.838Z,476.22
2023-01-28T20:32:16.192Z,476.89
2023-01-28T20:37:05.785Z,471.56
2023-01-28T20:42:04.603Z,470.57
2023-01-28T20:47:04.641Z,467.96
2023-01-28T20:52:04.590Z,464.09
2023-01-28T20:57:04.424Z,462.50
2023-01-28T21:02:04.467Z,458.41
2023-01-28T21:07:04.306Z,458.10
2023-01-28T21:12:04.322Z,458.72
2023-01-28T21:17:04.660Z,463.77
2023-01-28T21:22:04.102Z,464.41
2023-01-28T21:27:04.082Z,464.41
2023-01-28T21:32:04.037Z,462.50
2023-01-28T21:37:03.925Z,458.41
2023-01-28T21:42:03.942Z,455.32
2023-01-28T21:47:03.804Z,453.17
2023-01-28T21:52:03.792Z,451.96
2023-01-28T21:57:03.739Z,450.45
2023-01-28T22:02:03.584Z,449.25
2023-01-28T22:07:03.541Z,447.17
2023-01-28T22:12:03.424Z,444.51
2023-01-28T22:17:03.447Z,446.87
2023-01-28T22:22:03.341Z,441.31
2023-01-28T22:27:03.312Z,438.73
2023-01-28T22:32:03.232Z,438.44
2023-01-28T22:37:03.148Z,437.87
2023-01-28T22:42:03.072Z,441.60
2023-01-28T22:47:03.024Z,439.30
2023-01-28T22:52:02.950Z,442.18
2023-01-28T22:57:02.919Z,441.60
2023-01-28T23:02:02.852Z,442.76
2023-01-28T23:07:02.768Z,443.93
2023-01-28T23:12:02.687Z,443.93
2023-01-28T23:17:02.702Z,444.22
2023-01-28T23:22:02.600Z,444.51
2023-01-28T23:27:02.490Z,445.69
2023-01-28T23:32:02.453Z,448.06
2023-01-28T23:37:02.430Z,450.45
2023-01-28T23:42:02.391Z,450.45
2023-01-28T23:47:02.344Z,449.25
2023-01-28T23:52:02.187Z,445.10
2023-01-28T23:57:02.153Z,448.35
